createdAt,value
2019-05-18T00:01:58.117Z,82.00
2019-05-18T00:04:27.585Z,81.90
2019-05-18T00:06:57.299Z,82.00
2019-05-18T00:09:46.109Z,82.00
2019-05-18T00:12:15.623Z,82.10
2019-05-18T00:14:45.087Z,82.20
2019-05-18T00:17:24.959Z,82.40
2019-05-18T00:19:45.632Z,82.40
2019-05-18T00:22:15.173Z,82.40
2019-05-18T00:24:44.642Z,82.40
2019-05-18T00:27:14.125Z,82.60
2019-05-18T00:29:50.668Z,82.60
2019-05-18T00:32:23.727Z,82.40
2019-05-18T00:34:53.173Z,82.50
2019-05-18T00:37:22.639Z,82.60
2019-05-18T00:39:52.406Z,82.80
2019-05-18T00:42:21.903Z,82.80
2019-05-18T00:44:51.344Z,82.90
2019-05-18T00:47:20.818Z,83.00
2019-05-18T00:49:50.292Z,83.00
2019-05-18T00:52:19.742Z,82.80
2019-05-18T00:54:49.280Z,83.00
2019-05-18T00:57:18.822Z,83.00
2019-05-18T00:59:48.288Z,82.80
2019-05-18T01:02:21.319Z,82.80
2019-05-18T01:04:50.778Z,82.80
2019-05-18T01:07:36.296Z,83.00
2019-05-18T01:10:07.449Z,82.80
2019-05-18T01:12:37.006Z,83.20
2019-05-18T01:15:08.162Z,83.70
2019-05-18T01:17:37.681Z,84.00
2019-05-18T01:20:08.012Z,84.20
2019-05-18T01:22:37.481Z,84.50
2019-05-18T01:25:07.175Z,84.60
2019-05-18T01:27:36.749Z,84.70
2019-05-18T01:30:08.182Z,85.00
2019-05-18T01:32:38.824Z,84.90
2019-05-18T01:35:09.854Z,85.30
2019-05-18T01:37:39.331Z,85.50
2019-05-18T01:40:09.356Z,85.70
2019-05-18T01:42:38.788Z,86.10
2019-05-18T01:45:17.017Z,86.50
2019-05-18T01:47:43.237Z,86.70
2019-05-18T01:50:13.048Z,87.50
2019-05-18T01:52:42.518Z,86.60
2019-05-18T01:55:12.217Z,86.70
2019-05-18T01:57:41.689Z,86.60
2019-05-18T02:00:11.771Z,86.60
2019-05-18T02:02:42.342Z,86.70
2019-05-18T02:05:12.531Z,86.80
2019-05-18T02:07:41.997Z,86.80
2019-05-18T02:10:11.804Z,86.80
2019-05-18T02:12:41.255Z,86.80
2019-05-18T02:15:11.706Z,86.80
2019-05-18T02:17:41.155Z,87.20
2019-05-18T02:20:10.966Z,87.20
2019-05-18T02:22:40.423Z,87.20
2019-05-18T02:25:11.038Z,87.00
2019-05-18T02:27:40.485Z,86.80
2019-05-18T02:30:10.616Z,86.90
2019-05-18T02:32:40.148Z,87.00
2019-05-18T02:35:09.843Z,87.00
2019-05-18T02:37:39.318Z,87.60
2019-05-18T02:40:09.507Z,87.00
2019-05-18T02:42:40.022Z,86.90
2019-05-18T02:45:10.110Z,87.00
2019-05-18T02:47:39.576Z,87.40
2019-05-18T02:50:09.759Z,87.60
2019-05-18T02:52:40.218Z,87.80
2019-05-18T02:55:09.776Z,87.80
2019-05-18T02:57:51.058Z,87.80
2019-05-18T03:00:32.456Z,87.60
2019-05-18T03:03:01.899Z,87.80
2019-05-18T03:05:31.421Z,87.60
2019-05-18T03:08:00.874Z,87.70
2019-05-18T03:10:35.626Z,87.60
2019-05-18T03:13:05.901Z,87.40
2019-05-18T03:15:35.364Z,87.40
2019-05-18T03:18:04.906Z,87.80
2019-05-18T03:20:34.347Z,87.90
2019-05-18T03:23:15.876Z,88.00
2019-05-18T03:25:45.328Z,88.00
2019-05-18T03:28:14.919Z,88.00
2019-05-18T03:30:44.497Z,88.30
2019-05-18T03:33:14.033Z,88.30
2019-05-18T03:35:43.528Z,88.30
2019-05-18T03:38:13.017Z,88.40
2019-05-18T03:40:54.832Z,88.40
2019-05-18T03:43:24.309Z,88.90
2019-05-18T03:45:54.810Z,89.00
2019-05-18T03:48:24.292Z,89.30
2019-05-18T03:50:53.761Z,89.30
2019-05-18T03:53:23.251Z,89.30
2019-05-18T03:55:52.711Z,89.40
2019-05-18T03:58:22.170Z,89.30
2019-05-18T04:00:54.555Z,89.60
2019-05-18T04:03:24.012Z,89.70
2019-05-18T04:05:53.472Z,89.70
2019-05-18T04:08:22.933Z,89.50
2019-05-18T04:11:04.762Z,89.50
2019-05-18T04:13:34.230Z,89.70
2019-05-18T04:16:05.230Z,90.00
2019-05-18T04:18:36.262Z,90.00
2019-05-18T04:21:08.569Z,90.00
2019-05-18T04:23:38.012Z,90.10
2019-05-18T04:26:07.657Z,90.00
2019-05-18T04:28:37.130Z,90.00
2019-05-18T04:31:06.577Z,89.70
2019-05-18T04:33:39.991Z,89.40
2019-05-18T04:36:09.464Z,89.10
2019-05-18T04:38:38.936Z,88.80
2019-05-18T04:41:08.398Z,88.70
2019-05-18T04:43:38.136Z,88.80
2019-05-18T04:46:07.587Z,88.60
2019-05-18T04:48:37.038Z,88.70
2019-05-18T04:51:06.524Z,88.20
2019-05-18T04:53:35.965Z,88.40
2019-05-18T04:56:05.501Z,88.30
2019-05-18T04:58:35.537Z,88.90
2019-05-18T05:01:05.058Z,89.00
2019-05-18T05:03:35.088Z,89.10
2019-05-18T05:06:04.560Z,89.50
2019-05-18T05:08:46.533Z,89.70
2019-05-18T05:11:23.214Z,89.40
2019-05-18T05:13:52.684Z,88.90
2019-05-18T05:16:22.694Z,88.60
2019-05-18T05:18:52.238Z,88.30
2019-05-18T05:21:21.658Z,88.10
2019-05-18T05:23:51.190Z,87.50
2019-05-18T05:26:20.657Z,86.90
2019-05-18T05:28:50.174Z,86.40
2019-05-18T05:31:19.606Z,86.10
2019-05-18T05:33:49.070Z,85.90
2019-05-18T05:36:18.538Z,86.00
2019-05-18T05:38:48.015Z,85.60
2019-05-18T05:41:17.499Z,85.20
2019-05-18T05:43:47.083Z,85.20
2019-05-18T05:46:23.859Z,84.90
2019-05-18T05:48:53.332Z,84.80
2019-05-18T05:51:23.325Z,85.00
2019-05-18T05:53:52.770Z,84.80
2019-05-18T05:56:30.999Z,84.60
2019-05-18T05:59:00.527Z,84.20
2019-05-18T06:01:29.983Z,84.00
2019-05-18T06:03:59.452Z,84.40
2019-05-18T06:06:29.639Z,84.20
2019-05-18T06:08:59.095Z,83.90
2019-05-18T06:11:28.580Z,84.60
2019-05-18T06:14:07.723Z,83.40
2019-05-18T06:16:37.075Z,82.30
2019-05-18T06:19:06.523Z,80.20
2019-05-18T06:21:35.977Z,78.90
2019-05-18T06:24:05.549Z,79.00
2019-05-18T06:26:35.946Z,79.60
2019-05-18T06:29:05.466Z,79.80
2019-05-18T06:31:34.939Z,79.20
2019-05-18T06:34:04.549Z,77.90
2019-05-18T06:36:33.981Z,77.00
2019-05-18T06:39:05.083Z,76.50
2019-05-18T06:41:34.574Z,76.10
2019-05-18T06:44:04.683Z,75.70
2019-05-18T06:46:34.158Z,73.30
2019-05-18T06:49:03.624Z,73.50
2019-05-18T06:51:33.103Z,72.90
2019-05-18T06:54:02.558Z,72.10
2019-05-18T06:56:33.861Z,72.00
2019-05-18T06:59:03.503Z,72.50
2019-05-18T07:01:32.955Z,73.40
2019-05-18T07:04:02.494Z,73.10
2019-05-18T07:06:32.343Z,71.40
2019-05-18T07:09:01.868Z,71.90
2019-05-18T07:11:32.922Z,71.40
2019-05-18T07:14:02.887Z,71.20
2019-05-18T07:16:32.352Z,71.20
2019-05-18T07:19:01.823Z,71.40
2019-05-18T07:21:31.302Z,71.50
2019-05-18T07:24:00.766Z,70.60
2019-05-18T07:26:31.326Z,69.20
2019-05-18T07:29:05.403Z,69.20
2019-05-18T07:31:32.320Z,69.60
2019-05-18T07:34:01.775Z,67.80
2019-05-18T07:36:31.275Z,68.10
2019-05-18T07:39:00.814Z,68.00
2019-05-18T07:41:44.528Z,66.60
2019-05-18T07:44:02.024Z,66.20
2019-05-18T07:46:32.746Z,64.30
2019-05-18T07:49:02.272Z,63.60
2019-05-18T07:51:36.932Z,64.00
2019-05-18T07:54:02.792Z,63.90
2019-05-18T07:56:32.334Z,64.20
2019-05-18T07:59:01.786Z,63.70
2019-05-18T08:01:31.245Z,64.00
2019-05-18T08:04:00.707Z,63.80
2019-05-18T08:06:40.463Z,63.10
2019-05-18T08:09:11.125Z,62.80
2019-05-18T08:11:41.843Z,62.20
2019-05-18T08:14:11.923Z,61.60
2019-05-18T08:16:41.383Z,60.60
2019-05-18T08:19:11.894Z,59.90
2019-05-18T08:21:52.641Z,60.00
2019-05-18T08:24:13.907Z,60.50
2019-05-18T08:26:44.394Z,60.70
2019-05-18T08:29:13.871Z,59.80
2019-05-18T08:31:43.405Z,59.40
2019-05-18T08:34:12.861Z,59.70
2019-05-18T08:36:42.335Z,59.90
2019-05-18T08:39:11.923Z,59.00
2019-05-18T08:41:48.730Z,59.00
2019-05-18T08:44:17.407Z,58.40
2019-05-18T08:46:46.896Z,57.90
2019-05-18T08:49:16.844Z,57.80
2019-05-18T08:51:51.952Z,58.00
2019-05-18T08:54:21.414Z,57.70
2019-05-18T08:56:50.867Z,57.40
2019-05-18T08:59:20.383Z,57.00
2019-05-18T09:01:49.839Z,56.70
2019-05-18T09:04:19.329Z,56.50
2019-05-18T09:06:48.846Z,56.90
2019-05-18T09:09:18.315Z,57.20
2019-05-18T09:11:47.763Z,57.10
2019-05-18T09:14:17.329Z,56.80
2019-05-18T09:16:46.789Z,56.40
2019-05-18T09:19:16.360Z,56.60
2019-05-18T09:21:46.878Z,56.00
2019-05-18T09:24:17.605Z,55.70
2019-05-18T09:26:53.591Z,55.90
2019-05-18T09:29:29.528Z,56.00
2019-05-18T09:32:05.165Z,56.00
2019-05-18T09:34:39.440Z,55.80
2019-05-18T09:37:18.617Z,55.40
2019-05-18T09:39:57.734Z,55.40
2019-05-18T09:42:29.163Z,55.00
2019-05-18T09:44:58.644Z,54.70
2019-05-18T09:47:31.042Z,55.10
2019-05-18T09:50:01.775Z,55.00
2019-05-18T09:52:44.131Z,54.80
2019-05-18T09:55:08.371Z,53.70
2019-05-18T09:57:40.654Z,53.10
2019-05-18T10:00:11.937Z,53.10
2019-05-18T10:02:42.058Z,52.70
2019-05-18T10:05:12.984Z,51.20
2019-05-18T10:07:42.924Z,51.60
2019-05-18T10:10:13.371Z,52.10
2019-05-18T10:12:44.270Z,51.90
2019-05-18T10:15:20.575Z,51.70
2019-05-18T10:17:50.048Z,51.50
2019-05-18T10:20:20.240Z,50.80
2019-05-18T10:23:04.220Z,49.70
2019-05-18T10:25:24.288Z,50.00
2019-05-18T10:27:53.810Z,50.80
2019-05-18T10:30:25.920Z,51.10
2019-05-18T10:32:55.393Z,50.40
2019-05-18T10:35:24.879Z,50.40
2019-05-18T10:37:54.995Z,51.20
2019-05-18T10:40:24.548Z,52.00
2019-05-18T10:42:55.327Z,51.80
2019-05-18T10:45:29.038Z,51.60
2019-05-18T10:48:05.529Z,52.10
2019-05-18T10:50:38.362Z,51.70
2019-05-18T10:53:10.577Z,51.00
2019-05-18T10:55:52.651Z,50.80
2019-05-18T10:58:23.774Z,50.10
2019-05-18T11:00:54.326Z,51.10
2019-05-18T11:03:25.311Z,50.50
2019-05-18T11:05:54.851Z,50.40
2019-05-18T11:08:26.166Z,51.10
2019-05-18T11:10:57.533Z,51.20
2019-05-18T11:13:26.996Z,50.70
2019-05-18T11:15:57.874Z,50.20
2019-05-18T11:18:30.508Z,49.60
2019-05-18T11:21:08.894Z,49.70
2019-05-18T11:23:43.633Z,49.30
2019-05-18T11:26:12.384Z,48.30
2019-05-18T11:28:44.568Z,48.20
2019-05-18T11:31:14.026Z,48.70
2019-05-18T11:33:43.474Z,49.70
2019-05-18T11:36:13.020Z,50.20
2019-05-18T11:38:42.531Z,49.30
2019-05-18T11:41:13.663Z,48.50
2019-05-18T11:43:43.400Z,47.60
2019-05-18T11:46:14.440Z,46.80
2019-05-18T11:48:43.981Z,46.30
2019-05-18T11:51:13.380Z,46.80
2019-05-18T11:53:42.854Z,47.00
2019-05-18T11:56:12.303Z,47.50
2019-05-18T11:58:41.762Z,47.40
2019-05-18T12:01:11.295Z,46.40
2019-05-18T12:03:40.762Z,46.00
2019-05-18T12:06:10.234Z,45.10
2019-05-18T12:08:39.694Z,45.40
2019-05-18T12:11:09.171Z,44.40
2019-05-18T12:13:38.635Z,44.20
2019-05-18T12:16:08.253Z,44.20
2019-05-18T12:18:37.716Z,44.70
2019-05-18T12:21:07.430Z,44.50
2019-05-18T12:23:38.095Z,44.90
2019-05-18T12:26:07.624Z,44.60
2019-05-18T12:28:37.078Z,43.70
2019-05-18T12:31:06.577Z,43.60
2019-05-18T12:33:36.085Z,43.80
2019-05-18T12:36:07.585Z,43.70
2019-05-18T12:38:38.868Z,44.10
2019-05-18T12:41:08.342Z,45.00
2019-05-18T12:44:01.419Z,45.20
2019-05-18T12:46:32.258Z,44.60
2019-05-18T12:49:03.182Z,45.00
2019-05-18T12:51:32.637Z,44.10
2019-05-18T12:54:02.178Z,44.30
2019-05-18T12:56:37.371Z,41.60
2019-05-18T12:59:06.915Z,40.10
2019-05-18T13:01:36.362Z,39.70
2019-05-18T13:04:05.820Z,39.10
2019-05-18T13:06:36.610Z,38.90
2019-05-18T13:09:07.214Z,38.70
2019-05-18T13:11:40.769Z,38.10
2019-05-18T13:14:13.032Z,38.50
2019-05-18T13:16:50.850Z,39.70
2019-05-18T13:19:23.087Z,39.70
2019-05-18T13:21:52.603Z,39.10
2019-05-18T13:24:23.603Z,39.40
2019-05-18T13:26:53.083Z,38.70
2019-05-18T13:29:24.476Z,38.70
2019-05-18T13:31:53.630Z,38.60
2019-05-18T13:34:23.074Z,39.20
2019-05-18T13:36:54.071Z,38.80
2019-05-18T13:39:24.371Z,38.20
2019-05-18T13:41:54.053Z,38.20
2019-05-18T13:44:23.911Z,37.50
2019-05-18T13:46:53.441Z,36.80
2019-05-18T13:49:22.900Z,35.70
2019-05-18T13:51:52.323Z,36.10
2019-05-18T13:54:22.967Z,36.70
2019-05-18T13:56:52.491Z,38.20
2019-05-18T13:59:24.113Z,39.00
2019-05-18T14:01:55.135Z,39.70
2019-05-18T14:04:24.840Z,40.00
2019-05-18T14:06:54.290Z,40.40
2019-05-18T14:09:23.726Z,40.30
2019-05-18T14:11:53.191Z,39.20
2019-05-18T14:14:22.646Z,38.50
2019-05-18T14:16:52.083Z,37.80
2019-05-18T14:19:21.577Z,37.00
2019-05-18T14:21:51.002Z,35.70
2019-05-18T14:24:20.462Z,35.60
2019-05-18T14:26:50.970Z,35.50
2019-05-18T14:29:20.685Z,35.90
2019-05-18T14:31:50.123Z,36.50
2019-05-18T14:34:19.588Z,37.10
2019-05-18T14:36:49.088Z,35.80
2019-05-18T14:39:18.547Z,35.10
2019-05-18T14:41:49.525Z,34.60
2019-05-18T14:44:20.055Z,34.80
2019-05-18T14:46:49.506Z,35.60
2019-05-18T14:49:18.968Z,35.50
2019-05-18T14:51:48.412Z,35.20
2019-05-18T14:54:17.901Z,35.00
2019-05-18T14:56:47.372Z,35.20
2019-05-18T14:59:16.841Z,34.50
2019-05-18T15:01:46.306Z,33.40
2019-05-18T15:04:16.998Z,34.10
2019-05-18T15:06:46.457Z,36.20
2019-05-18T15:09:15.925Z,37.40
2019-05-18T15:11:45.378Z,38.30
2019-05-18T15:14:14.868Z,39.80
2019-05-18T15:16:44.340Z,41.70
2019-05-18T15:19:14.881Z,43.00
2019-05-18T15:21:45.095Z,43.90
2019-05-18T15:24:14.553Z,44.50
2019-05-18T15:26:44.073Z,44.50
2019-05-18T15:29:14.522Z,45.00
2019-05-18T15:31:44.044Z,45.10
2019-05-18T15:34:13.607Z,45.90
2019-05-18T15:36:43.239Z,46.30
2019-05-18T15:39:12.719Z,46.30
2019-05-18T15:41:42.181Z,46.30
2019-05-18T15:44:17.557Z,46.40
2019-05-18T15:46:47.028Z,46.40
2019-05-18T15:49:16.634Z,45.50
2019-05-18T15:51:46.091Z,43.50
2019-05-18T15:54:15.633Z,41.80
2019-05-18T15:56:45.096Z,40.10
2019-05-18T15:59:15.695Z,39.60
2019-05-18T16:01:45.147Z,40.10
2019-05-18T16:04:14.587Z,41.00
2019-05-18T16:06:44.025Z,43.00
2019-05-18T16:09:13.553Z,44.10
2019-05-18T16:11:43.043Z,45.00
2019-05-18T16:14:12.497Z,45.70
2019-05-18T16:16:42.034Z,46.70
2019-05-18T16:19:11.430Z,47.00
2019-05-18T16:21:40.907Z,47.40
2019-05-18T16:24:10.381Z,47.60
2019-05-18T16:26:39.824Z,47.60
2019-05-18T16:29:09.352Z,48.10
2019-05-18T16:31:38.825Z,48.70
2019-05-18T16:34:08.370Z,49.30
2019-05-18T16:36:37.948Z,49.50
2019-05-18T16:39:08.025Z,50.00
2019-05-18T16:41:37.545Z,50.30
2019-05-18T16:44:07.154Z,50.80
2019-05-18T16:46:36.615Z,51.00
2019-05-18T16:49:06.068Z,51.20
2019-05-18T16:51:42.745Z,51.50
2019-05-18T16:54:12.303Z,51.70
2019-05-18T16:56:43.306Z,51.90
2019-05-18T16:59:14.190Z,52.30
2019-05-18T17:01:44.413Z,52.40
2019-05-18T17:04:14.077Z,52.80
2019-05-18T17:06:43.571Z,52.80
2019-05-18T17:09:13.051Z,52.90
2019-05-18T17:11:42.543Z,53.20
2019-05-18T17:14:12.015Z,53.30
2019-05-18T17:16:41.454Z,53.10
2019-05-18T17:19:10.914Z,53.20
2019-05-18T17:21:41.924Z,53.40
2019-05-18T17:24:11.440Z,53.30
2019-05-18T17:26:52.412Z,53.20
2019-05-18T17:29:12.063Z,53.20
2019-05-18T17:31:41.593Z,52.50
2019-05-18T17:34:11.055Z,52.40
2019-05-18T17:36:40.508Z,52.80
2019-05-18T17:39:09.958Z,53.20
2019-05-18T17:41:39.495Z,53.40
2019-05-18T17:44:08.969Z,53.40
2019-05-18T17:46:38.424Z,53.20
2019-05-18T17:49:07.908Z,53.10
2019-05-18T17:51:37.375Z,53.40
2019-05-18T17:54:06.922Z,53.80
2019-05-18T17:56:36.378Z,53.90
2019-05-18T17:59:14.084Z,54.20
2019-05-18T18:01:45.005Z,54.50
2019-05-18T18:04:14.538Z,54.70
2019-05-18T18:06:44.006Z,55.00
2019-05-18T18:09:13.685Z,55.20
2019-05-18T18:11:43.133Z,55.40
2019-05-18T18:14:12.662Z,55.40
2019-05-18T18:16:43.726Z,55.70
2019-05-18T18:19:13.186Z,55.70
2019-05-18T18:21:46.695Z,55.90
2019-05-18T18:24:24.710Z,55.80
2019-05-18T18:26:54.177Z,56.10
2019-05-18T18:29:23.644Z,56.20
2019-05-18T18:31:53.103Z,56.30
2019-05-18T18:34:22.562Z,56.10
2019-05-18T18:36:52.031Z,55.80
2019-05-18T18:39:22.392Z,56.00
2019-05-18T18:41:56.947Z,56.40
2019-05-18T18:44:26.444Z,56.90
2019-05-18T18:46:57.266Z,57.00
2019-05-18T18:49:26.809Z,58.00
2019-05-18T18:52:00.691Z,58.00
2019-05-18T18:54:35.358Z,58.40
2019-05-18T18:57:06.362Z,58.80
2019-05-18T18:59:35.831Z,58.90
2019-05-18T19:02:08.266Z,59.00
2019-05-18T19:04:43.262Z,59.60
2019-05-18T19:07:10.901Z,59.70
2019-05-18T19:09:40.420Z,60.10
2019-05-18T19:12:10.423Z,60.40
2019-05-18T19:14:39.872Z,61.20
2019-05-18T19:17:09.413Z,61.60
2019-05-18T19:19:40.229Z,62.50
2019-05-18T19:22:10.673Z,63.50
2019-05-18T19:24:41.659Z,63.30
2019-05-18T19:27:12.188Z,64.50
2019-05-18T19:29:41.659Z,64.90
2019-05-18T19:32:11.147Z,65.60
2019-05-18T19:34:40.603Z,65.30
2019-05-18T19:37:10.661Z,65.80
2019-05-18T19:39:40.140Z,65.90
2019-05-18T19:42:14.033Z,66.60
2019-05-18T19:44:42.693Z,66.70
2019-05-18T19:47:17.463Z,66.30
2019-05-18T19:49:52.742Z,66.40
2019-05-18T19:52:22.208Z,66.90
2019-05-18T19:54:51.738Z,67.00
2019-05-18T19:57:21.273Z,66.70
2019-05-18T19:59:50.750Z,66.80
2019-05-18T20:02:21.075Z,66.40
2019-05-18T20:05:06.785Z,66.70
2019-05-18T20:07:23.231Z,66.60
2019-05-18T20:09:53.047Z,67.10
2019-05-18T20:12:22.575Z,67.10
2019-05-18T20:14:52.042Z,67.10
2019-05-18T20:17:21.561Z,67.10
2019-05-18T20:19:51.206Z,66.80
2019-05-18T20:22:20.755Z,66.70
2019-05-18T20:24:50.208Z,66.70
2019-05-18T20:27:19.683Z,66.50
2019-05-18T20:29:49.979Z,66.60
2019-05-18T20:32:19.494Z,66.50
2019-05-18T20:34:48.943Z,66.40
2019-05-18T20:37:25.519Z,66.40
2019-05-18T20:39:54.977Z,66.40
2019-05-18T20:42:27.417Z,66.60
2019-05-18T20:44:57.694Z,66.70
2019-05-18T20:47:28.817Z,66.60
2019-05-18T20:50:01.229Z,66.80
2019-05-18T20:52:31.934Z,66.80
2019-05-18T20:55:02.443Z,67.10
2019-05-18T20:57:34.416Z,67.40
2019-05-18T21:00:07.704Z,67.30
2019-05-18T21:02:38.939Z,67.40
2019-05-18T21:05:10.267Z,67.60
2019-05-18T21:07:40.035Z,67.50
2019-05-18T21:10:10.249Z,67.60
2019-05-18T21:12:52.390Z,67.90
2019-05-18T21:15:22.003Z,68.00
2019-05-18T21:17:56.168Z,68.80
2019-05-18T21:20:32.811Z,68.10
2019-05-18T21:23:02.226Z,68.20
2019-05-18T21:25:36.637Z,68.30
2019-05-18T21:28:06.150Z,68.50
2019-05-18T21:30:36.579Z,68.50
2019-05-18T21:33:06.094Z,68.50
2019-05-18T21:35:35.568Z,68.30
2019-05-18T21:38:05.035Z,68.50
2019-05-18T21:40:34.574Z,68.70
2019-05-18T21:43:16.488Z,68.70
2019-05-18T21:45:45.950Z,68.70
2019-05-18T21:48:15.410Z,68.80
2019-05-18T21:50:45.003Z,69.10
2019-05-18T21:53:14.465Z,69.30
2019-05-18T21:55:45.474Z,69.40
2019-05-18T21:58:14.926Z,69.40
2019-05-18T22:00:46.907Z,69.50
2019-05-18T22:03:16.548Z,69.70
2019-05-18T22:05:46.043Z,69.80
2019-05-18T22:08:15.489Z,69.90
2019-05-18T22:10:45.034Z,70.20
2019-05-18T22:13:14.474Z,70.20
2019-05-18T22:15:43.926Z,70.60
2019-05-18T22:18:24.075Z,70.80
2019-05-18T22:20:44.621Z,71.00
2019-05-18T22:23:20.866Z,71.50
2019-05-18T22:25:50.340Z,71.50
2019-05-18T22:28:19.969Z,71.80
2019-05-18T22:30:49.435Z,72.10
2019-05-18T22:33:18.904Z,72.10
2019-05-18T22:35:48.349Z,72.50
2019-05-18T22:38:17.798Z,72.80
2019-05-18T22:40:47.235Z,72.90
2019-05-18T22:43:16.639Z,73.30
2019-05-18T22:45:46.095Z,73.50
2019-05-18T22:48:15.545Z,73.70
2019-05-18T22:50:45.022Z,73.80
2019-05-18T22:53:14.518Z,74.30
2019-05-18T22:55:43.997Z,74.60
2019-05-18T22:58:15.142Z,75.00
2019-05-18T23:00:44.584Z,75.00
2019-05-18T23:03:20.960Z,75.80
2019-05-18T23:05:50.430Z,76.00
2019-05-18T23:08:23.644Z,76.40
2019-05-18T23:10:55.049Z,76.70
2019-05-18T23:13:24.184Z,76.90
2019-05-18T23:15:53.614Z,77.10
2019-05-18T23:18:23.059Z,77.20
2019-05-18T23:20:52.427Z,77.50
2019-05-18T23:23:21.880Z,77.70
2019-05-18T23:25:52.421Z,78.10
2019-05-18T23:28:21.871Z,78.20
2019-05-18T23:30:51.357Z,78.50
2019-05-18T23:33:21.871Z,78.70
2019-05-18T23:35:51.344Z,79.00
2019-05-18T23:38:20.778Z,79.20
2019-05-18T23:40:50.247Z,79.50
2019-05-18T23:43:19.718Z,79.50
2019-05-18T23:46:03.458Z,79.80
2019-05-18T23:48:32.893Z,79.90
2019-05-18T23:51:02.362Z,80.10
2019-05-18T23:53:31.839Z,80.30
2019-05-18T23:56:01.286Z,80.30
2019-05-18T23:58:30.814Z,80.10
